Comins, MI (48619)

11:35 PM EDT on September 01, 2014 (GMT -0400)
RAWS MIO MI US | Change Station
CLOSE
Current Station
Personal Weather Station
Location: Mio, MI
Elevation: 1049 ft
Nearby Weather Stations

Elev 1049 ft 44.68 °N, 84.13 °W | Updated 35 minutes ago

Clear
Clear
69 °F
Feels Like 69 °F
N
7
Wind Variable Wind from West
Gusts 10.0 mph

Today
High -- | Low -- °F
--% Chance of Precip.
Yesterday
High -- | Low -- °F
Precip. -- in
6:58 AM 8:12 PM
Waxing Crescent, 47% visible
Pressure 29.73 in
Visibility 10.0 miles
Clouds Clear
Dew Point 65 °F
Humidity 88%
Rainfall 0.46 in
Snow Depth Not available.
UV 0 out of 12
Pollen 8.30 out of 12
Ozone Good
PM2.5 Good
Flu Activity Not available.
METAR KAPN 020254Z AUTO 24004KT 10SM CLR 19/18 A2974 RMK AO2 SLP067 60024 T01940183 51016 $

More Conditions Fewer Conditions

Pressure 29.73 in
Visibility 10.0 miles
Clouds Clear
Dew Point 65 °F
Humidity 88%
Rainfall 0.46 in
Snow Depth Not available.
UV 0 out of 12
Pollen 8.30 out of 12
Ozone Good
PM2.5 Good
Flu Activity Not available.
METAR KAPN 020254Z AUTO 24004KT 10SM CLR 19/18 A2974 RMK AO2 SLP067 60024 T01940183 51016 $

More Conditions Fewer Conditions

Nowcast | as of 11:00 PM EDT on September 1, 2014

At 12 am...mostly cloudy. Chance of rain showers. Temperature 65. Southwest winds 5 mph. At 2 am...mostly cloudy. Temperature 61. West winds 6 mph. At 4 am...mostly cloudy. Temperature 60. Light winds. At 6 am...mostly cloudy. Temperature 60. Light winds.

×

10-Day Weather Forecast

Almanac

Astronomy

Sep. 01, 2014 Rise Set
Actual Time 6:58 AM EDT 8:12 PM EDT
Civil Twilight 6:28 AM EDT 8:43 PM EDT
Nautical Twilight 5:51 AM EDT 9:19 PM EDT
Astronomical Twilight 5:13 AM EDT 9:57 PM EDT
Moon 2:00 PM EDT (9/1) 11:56 PM EDT (9/1)
Length of Visible Light 14h 14m
Length of Day
13h 14m
Tomorrow will be 3m 1s shorter.
Waxing Crescent, 47% of the Moon is Illuminated
Today
Waxing Crescent
Sep 2
First Quarter
Sep 8
Full
Sep 15
Last Quarter
Sep 24
New

Today's Extremes

State Highs State Lows

Community

WunderPhotos

Upload Photos

1,749,555 photos uploaded!

WunderBlogs® & News

Nearby

Air Quality

  Air Quality AQ Index Pollutant
Yesterday Good
OZONE
Yesterday Good
PM2.5
Current Good
OZONE
Current Good
PM2.5
Monday Good
OZONE
Monday Good
PM2.5
Tuesday Good
OZONE
Tuesday Good
PM2.5

Snow Depth

Station Depth Elevation
No new snow has been reported.

Earthquake Activity

City Distance Mag. Time & Date
No recent earthquake activity has been reported nearby.
Minimum magnitude displayed is 2.5.

Coastal Water Temperatures

Place Temperature
No Stations Reporting

Nearby Weather Stations